sensor_id;sensor_type;location;lat;lon;timestamp;temperature;humidity
3644;DHT22;1838;50.742;7.158;2023-07-31T00:01:19;19.60;99.90
3644;DHT22;1838;50.742;7.158;2023-07-31T00:03:45;19.60;99.90
3644;DHT22;1838;50.742;7.158;2023-07-31T00:06:12;19.60;99.90
3644;DHT22;1838;50.742;7.158;2023-07-31T00:08:37;19.60;99.90
3644;DHT22;1838;50.742;7.158;2023-07-31T00:11:03;19.60;99.90
3644;DHT22;1838;50.742;7.158;2023-07-31T00:13:28;19.60;99.90
3644;DHT22;1838;50.742;7.158;2023-07-31T00:15:54;19.50;99.90
3644;DHT22;1838;50.742;7.158;2023-07-31T00:18:19;19.50;99.90
3644;DHT22;1838;50.742;7.158;2023-07-31T00:20:45;19.50;99.90
3644;DHT22;1838;50.742;7.158;2023-07-31T00:23:10;19.60;99.90
3644;DHT22;1838;50.742;7.158;2023-07-31T00:25:36;19.60;99.90
3644;DHT22;1838;50.742;7.158;2023-07-31T00:28:01;19.60;99.90
3644;DHT22;1838;50.742;7.158;2023-07-31T00:30:27;19.60;99.90
3644;DHT22;1838;50.742;7.158;2023-07-31T00:32:52;19.60;99.90
3644;DHT22;1838;50.742;7.158;2023-07-31T00:35:18;19.60;99.90
3644;DHT22;1838;50.742;7.158;2023-07-31T00:37:43;19.60;99.90
3644;DHT22;1838;50.742;7.158;2023-07-31T00:40:09;19.60;99.90
3644;DHT22;1838;50.742;7.158;2023-07-31T00:42:34;19.60;99.90
3644;DHT22;1838;50.742;7.158;2023-07-31T00:45:00;19.60;99.90
3644;DHT22;1838;50.742;7.158;2023-07-31T00:47:26;19.60;99.90
3644;DHT22;1838;50.742;7.158;2023-07-31T00:49:52;19.60;99.90
3644;DHT22;1838;50.742;7.158;2023-07-31T00:52:18;19.70;99.90
3644;DHT22;1838;50.742;7.158;2023-07-31T00:54:44;19.60;99.90
3644;DHT22;1838;50.742;7.158;2023-07-31T00:57:10;19.60;99.90
3644;DHT22;1838;50.742;7.158;2023-07-31T00:59:36;19.60;99.90
3644;DHT22;1838;50.742;7.158;2023-07-31T01:02:01;19.60;99.90
3644;DHT22;1838;50.742;7.158;2023-07-31T01:04:28;19.60;99.90
3644;DHT22;1838;50.742;7.158;2023-07-31T01:09:36;19.70;99.90
3644;DHT22;1838;50.742;7.158;2023-07-31T01:12:03;19.60;99.90
3644;DHT22;1838;50.742;7.158;2023-07-31T01:14:29;19.70;99.90
3644;DHT22;1838;50.742;7.158;2023-07-31T01:16:55;19.70;99.90
3644;DHT22;1838;50.742;7.158;2023-07-31T01:19:25;19.70;99.90
3644;DHT22;1838;50.742;7.158;2023-07-31T01:25:16;19.80;99.90
3644;DHT22;1838;50.742;7.158;2023-07-31T01:27:57;19.80;99.90
3644;DHT22;1838;50.742;7.158;2023-07-31T01:30:27;19.80;99.90
3644;DHT22;1838;50.742;7.158;2023-07-31T01:32:54;19.80;99.90
3644;DHT22;1838;50.742;7.158;2023-07-31T01:35:21;19.80;99.90
3644;DHT22;1838;50.742;7.158;2023-07-31T01:37:47;19.80;99.90
3644;DHT22;1838;50.742;7.158;2023-07-31T01:40:12;19.80;99.90
3644;DHT22;1838;50.742;7.158;2023-07-31T01:42:38;19.70;99.90
3644;DHT22;1838;50.742;7.158;2023-07-31T01:45:03;19.70;99.90
3644;DHT22;1838;50.742;7.158;2023-07-31T01:47:29;19.70;99.90
3644;DHT22;1838;50.742;7.158;2023-07-31T01:49:55;19.50;99.90
3644;DHT22;1838;50.742;7.158;2023-07-31T01:52:20;19.40;99.90
3644;DHT22;1838;50.742;7.158;2023-07-31T01:54:46;19.30;99.90
3644;DHT22;1838;50.742;7.158;2023-07-31T01:57:11;19.40;99.90
3644;DHT22;1838;50.742;7.158;2023-07-31T01:59:37;19.40;99.90
3644;DHT22;1838;50.742;7.158;2023-07-31T02:02:03;19.30;99.90
3644;DHT22;1838;50.742;7.158;2023-07-31T02:04:28;19.30;99.90
3644;DHT22;1838;50.742;7.158;2023-07-31T02:06:53;19.30;99.90
3644;DHT22;1838;50.742;7.158;2023-07-31T02:09:19;19.30;99.90
3644;DHT22;1838;50.742;7.158;2023-07-31T02:11:44;19.30;99.90
3644;DHT22;1838;50.742;7.158;2023-07-31T02:14:10;19.30;99.90
3644;DHT22;1838;50.742;7.158;2023-07-31T02:16:35;19.30;99.90
3644;DHT22;1838;50.742;7.158;2023-07-31T02:19:01;19.20;99.90
3644;DHT22;1838;50.742;7.158;2023-07-31T02:21:26;19.20;99.90
3644;DHT22;1838;50.742;7.158;2023-07-31T02:23:52;19.20;99.90
3644;DHT22;1838;50.742;7.158;2023-07-31T02:26:17;19.20;99.90
3644;DHT22;1838;50.742;7.158;2023-07-31T02:28:43;19.20;99.90
3644;DHT22;1838;50.742;7.158;2023-07-31T02:31:08;19.20;99.90
3644;DHT22;1838;50.742;7.158;2023-07-31T02:33:34;19.20;99.90
3644;DHT22;1838;50.742;7.158;2023-07-31T02:36:00;19.20;99.90
3644;DHT22;1838;50.742;7.158;2023-07-31T02:38:25;19.20;99.90
3644;DHT22;1838;50.742;7.158;2023-07-31T02:40:51;19.20;99.90
3644;DHT22;1838;50.742;7.158;2023-07-31T02:43:16;19.30;99.90
3644;DHT22;1838;50.742;7.158;2023-07-31T02:45:42;19.30;99.90
3644;DHT22;1838;50.742;7.158;2023-07-31T02:48:07;19.20;99.90
3644;DHT22;1838;50.742;7.158;2023-07-31T02:50:33;19.10;99.90
3644;DHT22;1838;50.742;7.158;2023-07-31T02:52:59;19.20;99.90
3644;DHT22;1838;50.742;7.158;2023-07-31T02:55:24;19.20;99.90
3644;DHT22;1838;50.742;7.158;2023-07-31T02:57:49;19.10;99.90
3644;DHT22;1838;50.742;7.158;2023-07-31T03:00:17;19.20;99.90
3644;DHT22;1838;50.742;7.158;2023-07-31T03:02:42;19.20;99.90
3644;DHT22;1838;50.742;7.158;2023-07-31T03:05:08;19.20;99.90
3644;DHT22;1838;50.742;7.158;2023-07-31T03:07:33;19.10;99.90
3644;DHT22;1838;50.742;7.158;2023-07-31T03:09:59;19.10;99.90
3644;DHT22;1838;50.742;7.158;2023-07-31T03:12:24;19.20;99.90
3644;DHT22;1838;50.742;7.158;2023-07-31T03:14:50;19.10;99.90
3644;DHT22;1838;50.742;7.158;2023-07-31T03:17:15;19.20;99.90
3644;DHT22;1838;50.742;7.158;2023-07-31T03:19:41;19.20;99.90
3644;DHT22;1838;50.742;7.158;2023-07-31T03:22:06;19.20;99.90
3644;DHT22;1838;50.742;7.158;2023-07-31T03:24:32;19.20;99.90
3644;DHT22;1838;50.742;7.158;2023-07-31T03:26:57;19.20;99.90
3644;DHT22;1838;50.742;7.158;2023-07-31T03:29:23;19.20;99.90
3644;DHT22;1838;50.742;7.158;2023-07-31T03:31:48;19.20;99.90
3644;DHT22;1838;50.742;7.158;2023-07-31T03:34:14;19.10;99.90
3644;DHT22;1838;50.742;7.158;2023-07-31T03:36:40;19.10;99.90
3644;DHT22;1838;50.742;7.158;2023-07-31T03:39:05;19.10;99.90
3644;DHT22;1838;50.742;7.158;2023-07-31T03:41:31;19.20;99.90
3644;DHT22;1838;50.742;7.158;2023-07-31T03:43:56;19.10;99.90
3644;DHT22;1838;50.742;7.158;2023-07-31T03:46:23;19.10;99.90
3644;DHT22;1838;50.742;7.158;2023-07-31T03:48:49;19.20;99.90
3644;DHT22;1838;50.742;7.158;2023-07-31T03:51:15;19.20;99.90
3644;DHT22;1838;50.742;7.158;2023-07-31T03:53:40;19.20;99.90
3644;DHT22;1838;50.742;7.158;2023-07-31T03:56:06;19.30;99.90
3644;DHT22;1838;50.742;7.158;2023-07-31T03:58:31;19.30;99.90
3644;DHT22;1838;50.742;7.158;2023-07-31T04:00:57;19.30;99.90
3644;DHT22;1838;50.742;7.158;2023-07-31T04:03:22;19.20;99.90
3644;DHT22;1838;50.742;7.158;2023-07-31T04:05:48;19.30;99.90
3644;DHT22;1838;50.742;7.158;2023-07-31T04:08:13;19.30;99.90
3644;DHT22;1838;50.742;7.158;2023-07-31T04:10:39;19.20;99.90
3644;DHT22;1838;50.742;7.158;2023-07-31T04:13:04;19.20;99.90
3644;DHT22;1838;50.742;7.158;2023-07-31T04:15:30;19.20;99.90
3644;DHT22;1838;50.742;7.158;2023-07-31T04:17:55;19.20;99.90
3644;DHT22;1838;50.742;7.158;2023-07-31T04:20:21;19.20;99.90
3644;DHT22;1838;50.742;7.158;2023-07-31T04:22:46;19.20;99.90
3644;DHT22;1838;50.742;7.158;2023-07-31T04:25:12;19.10;99.90
3644;DHT22;1838;50.742;7.158;2023-07-31T04:27:38;19.20;99.90
3644;DHT22;1838;50.742;7.158;2023-07-31T04:30:04;19.20;99.90
3644;DHT22;1838;50.742;7.158;2023-07-31T04:32:30;19.10;99.90
3644;DHT22;1838;50.742;7.158;2023-07-31T04:34:55;19.10;99.90
3644;DHT22;1838;50.742;7.158;2023-07-31T04:37:21;19.20;99.90
3644;DHT22;1838;50.742;7.158;2023-07-31T04:39:46;19.20;99.90
3644;DHT22;1838;50.742;7.158;2023-07-31T04:42:12;19.30;99.90
3644;DHT22;1838;50.742;7.158;2023-07-31T04:44:37;19.30;99.90
3644;DHT22;1838;50.742;7.158;2023-07-31T04:47:03;19.40;99.90
3644;DHT22;1838;50.742;7.158;2023-07-31T04:49:29;19.40;99.90
3644;DHT22;1838;50.742;7.158;2023-07-31T04:51:54;19.40;99.90
3644;DHT22;1838;50.742;7.158;2023-07-31T04:54:20;19.30;99.90
3644;DHT22;1838;50.742;7.158;2023-07-31T04:56:45;19.40;99.90
3644;DHT22;1838;50.742;7.158;2023-07-31T04:59:11;19.30;99.90
3644;DHT22;1838;50.742;7.158;2023-07-31T05:01:36;19.30;99.90
3644;DHT22;1838;50.742;7.158;2023-07-31T05:04:02;19.30;99.90
3644;DHT22;1838;50.742;7.158;2023-07-31T05:06:27;19.30;99.90
3644;DHT22;1838;50.742;7.158;2023-07-31T05:08:53;19.40;99.90
3644;DHT22;1838;50.742;7.158;2023-07-31T05:11:18;19.40;99.90
3644;DHT22;1838;50.742;7.158;2023-07-31T05:13:44;19.40;99.90
3644;DHT22;1838;50.742;7.158;2023-07-31T05:16:09;19.50;99.90
3644;DHT22;1838;50.742;7.158;2023-07-31T05:18:35;19.50;99.90
3644;DHT22;1838;50.742;7.158;2023-07-31T05:21:00;19.50;99.90
3644;DHT22;1838;50.742;7.158;2023-07-31T05:23:26;19.50;99.90
3644;DHT22;1838;50.742;7.158;2023-07-31T05:25:51;19.50;99.90
3644;DHT22;1838;50.742;7.158;2023-07-31T05:28:17;19.60;99.90
3644;DHT22;1838;50.742;7.158;2023-07-31T05:30:42;19.60;99.90
3644;DHT22;1838;50.742;7.158;2023-07-31T05:33:08;19.60;99.90
3644;DHT22;1838;50.742;7.158;2023-07-31T05:35:33;19.70;99.90
3644;DHT22;1838;50.742;7.158;2023-07-31T05:37:59;19.70;99.90
3644;DHT22;1838;50.742;7.158;2023-07-31T05:40:24;19.80;99.90
3644;DHT22;1838;50.742;7.158;2023-07-31T05:42:50;19.90;99.90
3644;DHT22;1838;50.742;7.158;2023-07-31T05:45:15;19.90;99.90
3644;DHT22;1838;50.742;7.158;2023-07-31T05:47:41;19.90;99.90
3644;DHT22;1838;50.742;7.158;2023-07-31T05:50:07;19.90;99.90
3644;DHT22;1838;50.742;7.158;2023-07-31T05:52:32;19.90;99.90
3644;DHT22;1838;50.742;7.158;2023-07-31T05:54:58;19.90;99.90
3644;DHT22;1838;50.742;7.158;2023-07-31T05:57:23;19.90;99.90
3644;DHT22;1838;50.742;7.158;2023-07-31T05:59:49;19.90;99.90
3644;DHT22;1838;50.742;7.158;2023-07-31T06:02:14;19.90;99.90
3644;DHT22;1838;50.742;7.158;2023-07-31T06:04:40;19.90;99.90
3644;DHT22;1838;50.742;7.158;2023-07-31T06:07:06;19.80;99.90
3644;DHT22;1838;50.742;7.158;2023-07-31T06:09:32;19.90;99.90
3644;DHT22;1838;50.742;7.158;2023-07-31T06:11:58;19.80;99.90
3644;DHT22;1838;50.742;7.158;2023-07-31T06:14:23;19.80;99.90
3644;DHT22;1838;50.742;7.158;2023-07-31T06:16:49;19.70;99.90
3644;DHT22;1838;50.742;7.158;2023-07-31T06:19:15;19.70;99.90
3644;DHT22;1838;50.742;7.158;2023-07-31T06:21:40;19.60;99.90
3644;DHT22;1838;50.742;7.158;2023-07-31T06:24:08;19.50;99.90
3644;DHT22;1838;50.742;7.158;2023-07-31T06:26:33;19.50;99.90
3644;DHT22;1838;50.742;7.158;2023-07-31T06:28:59;19.40;99.90
3644;DHT22;1838;50.742;7.158;2023-07-31T06:31:24;19.40;99.90
3644;DHT22;1838;50.742;7.158;2023-07-31T06:33:51;19.30;99.90
3644;DHT22;1838;50.742;7.158;2023-07-31T06:36:16;19.20;99.90
3644;DHT22;1838;50.742;7.158;2023-07-31T06:38:42;19.20;99.90
3644;DHT22;1838;50.742;7.158;2023-07-31T06:41:08;19.20;99.90
3644;DHT22;1838;50.742;7.158;2023-07-31T06:43:33;19.20;99.90
3644;DHT22;1838;50.742;7.158;2023-07-31T06:46:05;19.10;99.90
3644;DHT22;1838;50.742;7.158;2023-07-31T06:48:30;19.10;99.90
3644;DHT22;1838;50.742;7.158;2023-07-31T06:50:56;19.10;99.90
3644;DHT22;1838;50.742;7.158;2023-07-31T06:53:21;19.10;99.90
3644;DHT22;1838;50.742;7.158;2023-07-31T06:55:47;19.10;99.90
3644;DHT22;1838;50.742;7.158;2023-07-31T06:58:13;19.10;99.90
3644;DHT22;1838;50.742;7.158;2023-07-31T07:00:39;19.00;99.90
3644;DHT22;1838;50.742;7.158;2023-07-31T07:03:04;19.00;99.90
3644;DHT22;1838;50.742;7.158;2023-07-31T07:05:30;19.00;99.90
3644;DHT22;1838;50.742;7.158;2023-07-31T07:07:55;19.00;99.90
3644;DHT22;1838;50.742;7.158;2023-07-31T07:10:21;19.00;99.90
3644;DHT22;1838;50.742;7.158;2023-07-31T07:12:47;19.00;99.90
3644;DHT22;1838;50.742;7.158;2023-07-31T07:15:12;19.10;99.90
3644;DHT22;1838;50.742;7.158;2023-07-31T07:17:38;19.10;99.90
3644;DHT22;1838;50.742;7.158;2023-07-31T07:20:04;19.20;99.90
3644;DHT22;1838;50.742;7.158;2023-07-31T07:22:30;19.40;99.90
3644;DHT22;1838;50.742;7.158;2023-07-31T07:24:55;19.60;99.90
3644;DHT22;1838;50.742;7.158;2023-07-31T07:27:35;19.70;99.90
3644;DHT22;1838;50.742;7.158;2023-07-31T07:30:01;19.80;99.90
3644;DHT22;1838;50.742;7.158;2023-07-31T07:32:26;19.90;99.90
3644;DHT22;1838;50.742;7.158;2023-07-31T07:34:52;19.90;99.90
3644;DHT22;1838;50.742;7.158;2023-07-31T07:37:17;20.00;99.90
3644;DHT22;1838;50.742;7.158;2023-07-31T07:39:43;20.00;99.90
3644;DHT22;1838;50.742;7.158;2023-07-31T07:42:09;20.10;99.90
3644;DHT22;1838;50.742;7.158;2023-07-31T07:44:34;20.10;99.90
3644;DHT22;1838;50.742;7.158;2023-07-31T07:47:00;20.10;99.90
3644;DHT22;1838;50.742;7.158;2023-07-31T07:49:25;20.00;99.90
3644;DHT22;1838;50.742;7.158;2023-07-31T07:51:51;19.90;99.90
3644;DHT22;1838;50.742;7.158;2023-07-31T07:54:16;19.90;99.90
3644;DHT22;1838;50.742;7.158;2023-07-31T07:56:42;20.00;99.90
3644;DHT22;1838;50.742;7.158;2023-07-31T07:59:08;19.80;99.90
3644;DHT22;1838;50.742;7.158;2023-07-31T08:01:33;19.90;99.90
3644;DHT22;1838;50.742;7.158;2023-07-31T08:03:59;19.90;99.90
3644;DHT22;1838;50.742;7.158;2023-07-31T08:06:25;19.90;99.90
3644;DHT22;1838;50.742;7.158;2023-07-31T08:08:50;19.90;99.90
3644;DHT22;1838;50.742;7.158;2023-07-31T08:11:16;19.90;99.90
3644;DHT22;1838;50.742;7.158;2023-07-31T08:13:41;19.90;99.90
3644;DHT22;1838;50.742;7.158;2023-07-31T08:16:07;19.80;99.90
3644;DHT22;1838;50.742;7.158;2023-07-31T08:18:32;19.90;99.90
3644;DHT22;1838;50.742;7.158;2023-07-31T08:20:58;19.80;99.90
3644;DHT22;1838;50.742;7.158;2023-07-31T08:23:24;19.80;99.90
3644;DHT22;1838;50.742;7.158;2023-07-31T08:25:49;19.90;99.90
3644;DHT22;1838;50.742;7.158;2023-07-31T08:28:16;19.90;99.90
3644;DHT22;1838;50.742;7.158;2023-07-31T08:30:42;19.90;99.90
3644;DHT22;1838;50.742;7.158;2023-07-31T08:33:07;20.00;99.90
3644;DHT22;1838;50.742;7.158;2023-07-31T08:35:33;20.00;99.90
3644;DHT22;1838;50.742;7.158;2023-07-31T08:37:59;19.90;99.90
3644;DHT22;1838;50.742;7.158;2023-07-31T08:40:25;20.00;99.90
3644;DHT22;1838;50.742;7.158;2023-07-31T08:42:55;19.90;99.90
3644;DHT22;1838;50.742;7.158;2023-07-31T08:45:28;19.80;99.90
3644;DHT22;1838;50.742;7.158;2023-07-31T08:47:55;19.90;99.90
3644;DHT22;1838;50.742;7.158;2023-07-31T08:50:21;19.90;99.90
3644;DHT22;1838;50.742;7.158;2023-07-31T08:52:49;19.80;99.90
3644;DHT22;1838;50.742;7.158;2023-07-31T08:55:15;19.80;99.90
3644;DHT22;1838;50.742;7.158;2023-07-31T08:57:41;19.80;99.90
3644;DHT22;1838;50.742;7.158;2023-07-31T09:00:09;19.70;99.90
3644;DHT22;1838;50.742;7.158;2023-07-31T09:02:59;19.70;99.90
3644;DHT22;1838;50.742;7.158;2023-07-31T09:05:24;19.60;99.90
3644;DHT22;1838;50.742;7.158;2023-07-31T09:07:51;19.60;99.90
3644;DHT22;1838;50.742;7.158;2023-07-31T09:10:17;19.60;99.90
3644;DHT22;1838;50.742;7.158;2023-07-31T09:12:42;19.60;99.90
3644;DHT22;1838;50.742;7.158;2023-07-31T09:15:09;19.50;99.90
3644;DHT22;1838;50.742;7.158;2023-07-31T09:17:36;19.40;99.90
3644;DHT22;1838;50.742;7.158;2023-07-31T09:20:13;19.30;99.90
3644;DHT22;1838;50.742;7.158;2023-07-31T09:22:40;19.20;99.90
3644;DHT22;1838;50.742;7.158;2023-07-31T09:25:24;19.20;99.90
3644;DHT22;1838;50.742;7.158;2023-07-31T09:27:50;19.10;99.90
3644;DHT22;1838;50.742;7.158;2023-07-31T09:30:17;19.00;99.90
3644;DHT22;1838;50.742;7.158;2023-07-31T09:32:44;19.00;99.90
3644;DHT22;1838;50.742;7.158;2023-07-31T09:35:21;19.00;99.90
3644;DHT22;1838;50.742;7.158;2023-07-31T09:37:55;19.00;99.90
3644;DHT22;1838;50.742;7.158;2023-07-31T09:40:36;19.00;99.90
3644;DHT22;1838;50.742;7.158;2023-07-31T09:43:06;18.90;99.90
3644;DHT22;1838;50.742;7.158;2023-07-31T09:45:40;18.90;99.90
3644;DHT22;1838;50.742;7.158;2023-07-31T09:48:10;19.00;99.90
3644;DHT22;1838;50.742;7.158;2023-07-31T09:50:41;19.00;99.90
3644;DHT22;1838;50.742;7.158;2023-07-31T09:53:07;19.00;99.90
3644;DHT22;1838;50.742;7.158;2023-07-31T09:55:34;19.00;99.90
3644;DHT22;1838;50.742;7.158;2023-07-31T09:58:03;19.00;99.90
3644;DHT22;1838;50.742;7.158;2023-07-31T10:00:30;18.90;99.90
3644;DHT22;1838;50.742;7.158;2023-07-31T10:02:59;18.90;99.90
3644;DHT22;1838;50.742;7.158;2023-07-31T10:05:34;19.00;99.90
3644;DHT22;1838;50.742;7.158;2023-07-31T10:07:59;19.00;99.90
3644;DHT22;1838;50.742;7.158;2023-07-31T10:10:26;19.00;99.90
3644;DHT22;1838;50.742;7.158;2023-07-31T10:12:53;19.10;99.90
3644;DHT22;1838;50.742;7.158;2023-07-31T10:15:19;19.20;99.90
3644;DHT22;1838;50.742;7.158;2023-07-31T10:17:47;19.20;99.90
3644;DHT22;1838;50.742;7.158;2023-07-31T10:20:15;19.20;99.90
3644;DHT22;1838;50.742;7.158;2023-07-31T10:22:44;19.30;99.90
3644;DHT22;1838;50.742;7.158;2023-07-31T10:25:13;19.40;99.90
3644;DHT22;1838;50.742;7.158;2023-07-31T10:27:39;19.50;99.90
3644;DHT22;1838;50.742;7.158;2023-07-31T10:30:08;19.60;99.90
3644;DHT22;1838;50.742;7.158;2023-07-31T10:32:34;19.80;99.90
3644;DHT22;1838;50.742;7.158;2023-07-31T10:35:02;19.90;99.90
3644;DHT22;1838;50.742;7.158;2023-07-31T10:37:35;20.10;99.90
3644;DHT22;1838;50.742;7.158;2023-07-31T10:40:12;20.20;99.90
3644;DHT22;1838;50.742;7.158;2023-07-31T10:45:33;20.50;99.90
3644;DHT22;1838;50.742;7.158;2023-07-31T10:48:15;20.60;99.90
3644;DHT22;1838;50.742;7.158;2023-07-31T10:50:49;20.70;99.90
3644;DHT22;1838;50.742;7.158;2023-07-31T10:53:29;21.00;99.90
3644;DHT22;1838;50.742;7.158;2023-07-31T10:55:59;21.20;99.90
3644;DHT22;1838;50.742;7.158;2023-07-31T10:58:24;21.30;99.90
3644;DHT22;1838;50.742;7.158;2023-07-31T11:00:55;21.50;99.90
3644;DHT22;1838;50.742;7.158;2023-07-31T11:03:25;21.60;99.90
3644;DHT22;1838;50.742;7.158;2023-07-31T11:05:52;21.60;99.90
3644;DHT22;1838;50.742;7.158;2023-07-31T11:08:20;21.70;99.90
3644;DHT22;1838;50.742;7.158;2023-07-31T11:10:47;21.70;99.90
3644;DHT22;1838;50.742;7.158;2023-07-31T11:13:13;21.80;99.90
3644;DHT22;1838;50.742;7.158;2023-07-31T11:15:39;21.90;99.90
3644;DHT22;1838;50.742;7.158;2023-07-31T11:18:05;21.90;99.90
3644;DHT22;1838;50.742;7.158;2023-07-31T11:20:36;21.90;99.90
3644;DHT22;1838;50.742;7.158;2023-07-31T11:23:03;21.90;99.90
3644;DHT22;1838;50.742;7.158;2023-07-31T11:25:32;21.90;99.90
3644;DHT22;1838;50.742;7.158;2023-07-31T11:28:05;22.00;99.90
3644;DHT22;1838;50.742;7.158;2023-07-31T11:30:32;22.00;99.90
3644;DHT22;1838;50.742;7.158;2023-07-31T11:32:57;22.00;99.90
3644;DHT22;1838;50.742;7.158;2023-07-31T11:35:23;22.10;99.90
3644;DHT22;1838;50.742;7.158;2023-07-31T11:37:49;22.10;99.90
3644;DHT22;1838;50.742;7.158;2023-07-31T11:40:14;22.20;99.90
3644;DHT22;1838;50.742;7.158;2023-07-31T11:42:40;22.20;99.90
3644;DHT22;1838;50.742;7.158;2023-07-31T11:45:07;22.30;99.90
3644;DHT22;1838;50.742;7.158;2023-07-31T11:47:34;22.30;99.90
3644;DHT22;1838;50.742;7.158;2023-07-31T11:50:01;22.30;99.90
3644;DHT22;1838;50.742;7.158;2023-07-31T11:52:29;22.30;99.90
3644;DHT22;1838;50.742;7.158;2023-07-31T11:54:57;22.20;99.90
3644;DHT22;1838;50.742;7.158;2023-07-31T11:57:23;22.30;99.90
3644;DHT22;1838;50.742;7.158;2023-07-31T11:59:50;22.50;99.90
3644;DHT22;1838;50.742;7.158;2023-07-31T12:02:17;22.60;99.90
3644;DHT22;1838;50.742;7.158;2023-07-31T12:04:43;22.70;99.90
3644;DHT22;1838;50.742;7.158;2023-07-31T12:07:09;23.00;99.90
3644;DHT22;1838;50.742;7.158;2023-07-31T12:09:34;23.10;99.90
3644;DHT22;1838;50.742;7.158;2023-07-31T12:12:00;23.30;99.90
3644;DHT22;1838;50.742;7.158;2023-07-31T12:14:27;23.40;99.90
3644;DHT22;1838;50.742;7.158;2023-07-31T12:16:58;23.60;99.90
3644;DHT22;1838;50.742;7.158;2023-07-31T12:19:25;23.80;99.90
3644;DHT22;1838;50.742;7.158;2023-07-31T12:21:53;24.10;99.90
3644;DHT22;1838;50.742;7.158;2023-07-31T12:24:20;24.40;99.90
3644;DHT22;1838;50.742;7.158;2023-07-31T12:26:47;24.60;99.90
3644;DHT22;1838;50.742;7.158;2023-07-31T12:29:13;24.80;99.90
3644;DHT22;1838;50.742;7.158;2023-07-31T12:31:41;25.00;99.90
3644;DHT22;1838;50.742;7.158;2023-07-31T12:34:16;25.20;99.90
3644;DHT22;1838;50.742;7.158;2023-07-31T12:36:43;25.30;99.90
3644;DHT22;1838;50.742;7.158;2023-07-31T12:39:09;25.30;99.90
3644;DHT22;1838;50.742;7.158;2023-07-31T12:41:34;25.40;99.90
3644;DHT22;1838;50.742;7.158;2023-07-31T12:44:00;25.40;99.90
3644;DHT22;1838;50.742;7.158;2023-07-31T12:46:25;25.30;99.90
3644;DHT22;1838;50.742;7.158;2023-07-31T12:48:51;25.30;99.90
3644;DHT22;1838;50.742;7.158;2023-07-31T12:51:16;25.20;99.90
3644;DHT22;1838;50.742;7.158;2023-07-31T12:53:42;25.20;99.90
3644;DHT22;1838;50.742;7.158;2023-07-31T12:56:07;25.10;99.90
3644;DHT22;1838;50.742;7.158;2023-07-31T12:58:33;25.00;99.90
3644;DHT22;1838;50.742;7.158;2023-07-31T13:00:58;25.00;99.90
3644;DHT22;1838;50.742;7.158;2023-07-31T13:03:24;24.80;99.90
3644;DHT22;1838;50.742;7.158;2023-07-31T13:05:50;24.80;99.90
3644;DHT22;1838;50.742;7.158;2023-07-31T13:08:15;24.70;99.90
3644;DHT22;1838;50.742;7.158;2023-07-31T13:10:43;24.70;99.90
3644;DHT22;1838;50.742;7.158;2023-07-31T13:13:09;24.70;99.90
3644;DHT22;1838;50.742;7.158;2023-07-31T13:15:35;24.40;99.90
3644;DHT22;1838;50.742;7.158;2023-07-31T13:18:01;24.30;99.90
3644;DHT22;1838;50.742;7.158;2023-07-31T13:20:26;24.20;99.90
3644;DHT22;1838;50.742;7.158;2023-07-31T13:22:52;24.20;99.90
3644;DHT22;1838;50.742;7.158;2023-07-31T13:25:18;24.30;99.90
3644;DHT22;1838;50.742;7.158;2023-07-31T13:27:43;24.40;99.90
3644;DHT22;1838;50.742;7.158;2023-07-31T13:30:09;24.40;99.90
3644;DHT22;1838;50.742;7.158;2023-07-31T13:32:34;24.50;99.90
3644;DHT22;1838;50.742;7.158;2023-07-31T13:35:07;24.50;99.90
3644;DHT22;1838;50.742;7.158;2023-07-31T13:37:33;24.50;99.90
3644;DHT22;1838;50.742;7.158;2023-07-31T13:39:59;24.60;99.90
3644;DHT22;1838;50.742;7.158;2023-07-31T13:42:25;24.50;99.90
3644;DHT22;1838;50.742;7.158;2023-07-31T13:44:50;24.60;99.90
3644;DHT22;1838;50.742;7.158;2023-07-31T13:47:16;24.70;99.90
3644;DHT22;1838;50.742;7.158;2023-07-31T13:49:41;24.70;99.90
3644;DHT22;1838;50.742;7.158;2023-07-31T13:52:08;24.80;99.90
3644;DHT22;1838;50.742;7.158;2023-07-31T13:54:34;24.80;99.90
3644;DHT22;1838;50.742;7.158;2023-07-31T13:56:59;24.90;99.90
3644;DHT22;1838;50.742;7.158;2023-07-31T13:59:25;24.80;99.90
3644;DHT22;1838;50.742;7.158;2023-07-31T14:01:51;24.70;99.90
3644;DHT22;1838;50.742;7.158;2023-07-31T14:04:16;24.70;99.90
3644;DHT22;1838;50.742;7.158;2023-07-31T14:06:43;24.80;99.90
3644;DHT22;1838;50.742;7.158;2023-07-31T14:09:09;24.90;99.90
3644;DHT22;1838;50.742;7.158;2023-07-31T14:11:34;25.10;99.90
3644;DHT22;1838;50.742;7.158;2023-07-31T14:14:00;25.20;99.90
3644;DHT22;1838;50.742;7.158;2023-07-31T14:16:27;25.00;99.90
3644;DHT22;1838;50.742;7.158;2023-07-31T14:18:53;25.00;99.90
3644;DHT22;1838;50.742;7.158;2023-07-31T14:21:19;25.00;99.90
3644;DHT22;1838;50.742;7.158;2023-07-31T14:23:45;25.00;99.90
3644;DHT22;1838;50.742;7.158;2023-07-31T14:26:10;25.10;99.90
3644;DHT22;1838;50.742;7.158;2023-07-31T14:28:36;24.90;99.90
3644;DHT22;1838;50.742;7.158;2023-07-31T14:31:02;24.70;99.90
3644;DHT22;1838;50.742;7.158;2023-07-31T14:33:28;24.30;99.90
3644;DHT22;1838;50.742;7.158;2023-07-31T14:35:53;24.10;99.90
3644;DHT22;1838;50.742;7.158;2023-07-31T14:38:19;24.00;99.90
3644;DHT22;1838;50.742;7.158;2023-07-31T14:40:45;23.90;99.90
3644;DHT22;1838;50.742;7.158;2023-07-31T14:43:10;23.90;99.90
3644;DHT22;1838;50.742;7.158;2023-07-31T14:45:36;23.90;99.90
3644;DHT22;1838;50.742;7.158;2023-07-31T14:48:01;23.90;99.90
3644;DHT22;1838;50.742;7.158;2023-07-31T14:50:28;23.80;99.90
3644;DHT22;1838;50.742;7.158;2023-07-31T14:52:53;23.70;99.90
3644;DHT22;1838;50.742;7.158;2023-07-31T14:55:19;23.70;99.90
3644;DHT22;1838;50.742;7.158;2023-07-31T14:57:45;23.80;99.90
3644;DHT22;1838;50.742;7.158;2023-07-31T15:00:11;23.90;99.90
3644;DHT22;1838;50.742;7.158;2023-07-31T15:02:37;23.80;99.90
3644;DHT22;1838;50.742;7.158;2023-07-31T15:05:03;23.60;99.90
3644;DHT22;1838;50.742;7.158;2023-07-31T15:07:29;23.50;99.90
3644;DHT22;1838;50.742;7.158;2023-07-31T15:09:55;23.40;99.90
3644;DHT22;1838;50.742;7.158;2023-07-31T15:12:20;23.40;99.90
3644;DHT22;1838;50.742;7.158;2023-07-31T15:14:48;23.40;99.90
3644;DHT22;1838;50.742;7.158;2023-07-31T15:17:14;23.30;99.90
3644;DHT22;1838;50.742;7.158;2023-07-31T15:19:40;23.20;99.90
3644;DHT22;1838;50.742;7.158;2023-07-31T15:22:05;23.10;99.90
3644;DHT22;1838;50.742;7.158;2023-07-31T15:24:31;23.10;99.90
3644;DHT22;1838;50.742;7.158;2023-07-31T15:26:57;22.90;99.90
3644;DHT22;1838;50.742;7.158;2023-07-31T15:29:22;22.90;99.90
3644;DHT22;1838;50.742;7.158;2023-07-31T15:31:48;22.90;99.90
3644;DHT22;1838;50.742;7.158;2023-07-31T15:34:14;22.80;99.90
3644;DHT22;1838;50.742;7.158;2023-07-31T15:36:39;22.80;99.90
3644;DHT22;1838;50.742;7.158;2023-07-31T15:39:05;22.80;99.90
3644;DHT22;1838;50.742;7.158;2023-07-31T15:41:36;22.90;99.90
3644;DHT22;1838;50.742;7.158;2023-07-31T15:44:02;22.70;99.90
3644;DHT22;1838;50.742;7.158;2023-07-31T15:46:28;22.90;99.90
3644;DHT22;1838;50.742;7.158;2023-07-31T15:48:53;22.90;99.90
3644;DHT22;1838;50.742;7.158;2023-07-31T15:51:19;22.90;99.90
3644;DHT22;1838;50.742;7.158;2023-07-31T15:53:45;22.80;99.90
3644;DHT22;1838;50.742;7.158;2023-07-31T15:56:10;23.00;99.90
3644;DHT22;1838;50.742;7.158;2023-07-31T15:58:36;23.00;99.90
3644;DHT22;1838;50.742;7.158;2023-07-31T16:01:02;23.10;99.90
3644;DHT22;1838;50.742;7.158;2023-07-31T16:03:27;23.10;99.90
3644;DHT22;1838;50.742;7.158;2023-07-31T16:05:53;23.20;99.90